Time;durP1;ratioP1;P1;durP2;ratioP2;P2;SDS_P1;SDS_P2;PMS_P1;PMS_P2;Temp;Humidity;BMP_temperature;BMP_pressure;BME280_temperature;BME280_humidity;BME280_pressure;Samples;Min_cycle;Max_cycle;Signal;HPM_P1;HPM_P2
2021/01/30 00:01:03;;;;;;;2.27;0.90;;;6.20;93.00;;;;;;5018773;28;20222;-77
2021/01/30 00:03:29;;;;;;;0.60;0.60;;;6.20;93.00;;;;;;5016195;28;20223;-76
2021/01/30 00:05:55;;;;;;;1.43;0.97;;;6.20;93.10;;;;;;5023107;28;20207;-78
2021/01/30 00:08:22;;;;;;;1.27;0.60;;;6.30;93.30;;;;;;5023544;28;20552;-88
2021/01/30 00:10:48;;;;;;;1.10;0.80;;;6.40;93.50;;;;;;5026940;28;20216;-78
2021/01/30 00:13:30;;;;;;;1.00;0.87;;;6.50;93.00;;;;;;5024944;28;20690;-81
2021/01/30 00:15:57;;;;;;;0.97;0.80;;;6.40;93.40;;;;;;5026758;28;20705;-76
2021/01/30 00:18:23;;;;;;;0.70;0.70;;;6.40;93.40;;;;;;5021593;28;20219;-77
2021/01/30 00:20:50;;;;;;;1.87;0.70;;;6.50;93.50;;;;;;5022811;28;20739;-77
2021/01/30 00:23:33;;;;;;;1.13;0.60;;;6.50;93.50;;;;;;5023107;28;20218;-77
2021/01/30 00:26:07;;;;;;;0.87;0.70;;;6.40;93.80;;;;;;5015634;28;20199;-77
2021/01/30 00:28:33;;;;;;;1.30;1.20;;;6.40;93.80;;;;;;5019221;28;20303;-76
2021/01/30 00:31:00;;;;;;;2.00;0.90;;;6.40;93.90;;;;;;5021817;28;20202;-77
2021/01/30 00:33:27;;;;;;;1.30;0.70;;;6.40;94.20;;;;;;5026860;28;20707;-77
2021/01/30 00:35:53;;;;;;;1.03;0.80;;;6.40;94.10;;;;;;5022695;28;20227;-77
2021/01/30 00:38:19;;;;;;;1.13;0.90;;;6.40;94.20;;;;;;5025104;28;20218;-77
2021/01/30 00:40:46;;;;;;;2.10;1.00;;;6.30;94.60;;;;;;5021043;28;20201;-78
2021/01/30 00:43:12;;;;;;;0.93;0.80;;;6.30;94.60;;;;;;5024497;28;20226;-78
2021/01/30 00:45:38;;;;;;;1.40;0.90;;;6.40;94.50;;;;;;5014784;28;20237;-77
2021/01/30 00:48:06;;;;;;;2.90;0.90;;;6.40;94.50;;;;;;5023329;28;20679;-79
2021/01/30 00:50:40;;;;;;;1.13;0.80;;;6.40;94.60;;;;;;5025362;28;20207;-77
2021/01/30 00:53:06;;;;;;;1.40;0.87;;;6.40;94.60;;;;;;5023560;28;20698;-76
2021/01/30 00:55:33;;;;;;;1.13;0.93;;;6.40;94.70;;;;;;5018987;28;20368;-77
2021/01/30 00:57:59;;;;;;;1.13;0.90;;;6.40;95.40;;;;;;5019485;28;20227;-77
2021/01/30 01:00:27;;;;;;;1.97;0.80;;;6.30;95.40;;;;;;5021945;28;20223;-79
2021/01/30 01:02:54;;;;;;;0.90;0.70;;;6.30;95.40;;;;;;5024039;28;20222;-76
2021/01/30 01:05:23;;;;;;;1.07;1.00;;;6.30;95.70;;;;;;5025998;28;20204;-77
2021/01/30 01:07:49;;;;;;;1.53;0.90;;;6.30;95.70;;;;;;5022114;28;20231;-77
2021/01/30 01:10:23;;;;;;;3.20;0.83;;;6.20;95.80;;;;;;5034371;28;20198;-77
2021/01/30 01:12:50;;;;;;;1.70;0.80;;;6.30;95.90;;;;;;5031152;28;20222;-76
2021/01/30 01:15:19;;;;;;;1.50;0.90;;;6.20;95.90;;;;;;5031076;28;20219;-77
2021/01/30 01:17:46;;;;;;;1.53;0.87;;;6.20;96.10;;;;;;5020671;28;20245;-78
2021/01/30 01:20:16;;;;;;;1.13;0.73;;;6.20;96.50;;;;;;5021870;28;20205;-76
2021/01/30 01:22:43;;;;;;;0.93;0.90;;;6.10;96.60;;;;;;5029129;28;20226;-79
2021/01/30 01:25:10;;;;;;;0.83;0.70;;;6.10;96.50;;;;;;5025683;28;20660;-77
2021/01/30 01:27:37;;;;;;;2.67;1.00;;;6.20;96.30;;;;;;5029981;28;20230;-79
2021/01/30 01:30:05;;;;;;;0.80;0.67;;;6.20;96.10;;;;;;5026073;28;20199;-80
2021/01/30 01:32:32;;;;;;;1.67;0.90;;;6.10;96.30;;;;;;5026714;28;20229;-77
2021/01/30 01:34:58;;;;;;;2.63;0.80;;;6.20;96.30;;;;;;5031764;28;20298;-76
2021/01/30 01:37:24;;;;;;;1.40;1.00;;;6.20;95.60;;;;;;5027473;28;20711;-78
2021/01/30 01:39:51;;;;;;;0.93;0.83;;;6.30;95.80;;;;;;5027904;28;20208;-76
2021/01/30 01:42:20;;;;;;;0.80;0.80;;;6.30;95.40;;;;;;5028361;28;20227;-79
2021/01/30 01:44:47;;;;;;;2.13;0.90;;;6.30;95.40;;;;;;5029384;28;20299;-76
2021/01/30 01:47:18;;;;;;;2.80;0.70;;;6.30;95.40;;;;;;5027170;28;20692;-80
2021/01/30 01:49:55;;;;;;;1.00;0.80;;;6.40;94.90;;;;;;5023061;28;20199;-77
2021/01/30 01:52:26;;;;;;;1.50;0.77;;;6.50;94.40;;;;;;5027753;28;20218;-84
2021/01/30 01:54:56;;;;;;;2.27;0.80;;;6.50;94.50;;;;;;5028660;28;20202;-80
2021/01/30 01:57:23;;;;;;;1.33;0.73;;;6.40;94.60;;;;;;5025466;28;20595;-76
2021/01/30 02:00:00;;;;;;;1.80;0.80;;;6.40;94.30;;;;;;5022452;28;20625;-79
2021/01/30 02:02:31;;;;;;;0.83;0.60;;;6.40;94.40;;;;;;5027560;28;20242;-77
2021/01/30 02:05:05;;;;;;;1.10;0.90;;;6.50;94.50;;;;;;5026518;28;20209;-77
2021/01/30 02:07:32;;;;;;;1.63;0.83;;;6.50;94.20;;;;;;5027205;28;20227;-77
2021/01/30 02:09:59;;;;;;;1.10;1.00;;;6.50;94.20;;;;;;5023147;28;20256;-80
2021/01/30 02:12:26;;;;;;;1.17;0.83;;;6.50;94.10;;;;;;5026578;28;20226;-77
2021/01/30 02:15:01;;;;;;;0.73;0.67;;;6.60;94.10;;;;;;5027456;28;20554;-80
2021/01/30 02:17:39;;;;;;;1.70;0.80;;;6.60;94.20;;;;;;5022197;28;20234;-77
2021/01/30 02:20:58;;;;;;;0.60;0.60;;;6.50;94.20;;;;;;5023008;28;20604;-79
2021/01/30 02:24:16;;;;;;;0.67;0.60;;;6.50;94.30;;;;;;5018815;28;20226;-77
2021/01/30 02:27:21;;;;;;;1.77;1.00;;;6.40;94.70;;;;;;4928928;29;20622;-76
2021/01/30 02:30:27;;;;;;;1.20;0.90;;;6.40;94.50;;;;;;4892851;29;20245;-77
2021/01/30 02:33:14;;;;;;;1.63;0.90;;;6.30;94.50;;;;;;5028275;28;20229;-79
2021/01/30 02:36:09;;;;;;;0.90;0.70;;;6.30;94.20;;;;;;5025699;28;20220;-77
2021/01/30 02:38:44;;;;;;;1.70;0.70;;;6.20;94.10;;;;;;5021511;28;20216;-77
2021/01/30 02:41:14;;;;;;;0.73;0.70;;;6.20;94.20;;;;;;5027947;28;20699;-77
2021/01/30 02:43:45;;;;;;;1.27;0.70;;;6.20;94.20;;;;;;5027772;28;20218;-81
2021/01/30 02:46:18;;;;;;;0.80;0.80;;;6.20;93.80;;;;;;5019729;28;20203;-77
2021/01/30 02:48:48;;;;;;;1.70;0.80;;;6.30;93.70;;;;;;5025851;28;20277;-77
2021/01/30 02:51:21;;;;;;;0.70;0.67;;;6.30;93.30;;;;;;5031911;28;20523;-81
2021/01/30 02:53:52;;;;;;;0.97;0.60;;;6.40;93.00;;;;;;5023200;28;20250;-81
2021/01/30 02:56:21;;;;;;;1.00;0.90;;;6.40;92.70;;;;;;5023093;28;20226;-79
2021/01/30 02:58:52;;;;;;;0.60;0.60;;;6.40;92.80;;;;;;5023579;28;20223;-76
2021/01/30 03:01:19;;;;;;;1.17;0.60;;;6.40;92.70;;;;;;5024786;28;20191;-77
2021/01/30 03:03:47;;;;;;;0.80;0.70;;;6.40;92.90;;;;;;5030312;28;20226;-77
2021/01/30 03:06:23;;;;;;;0.80;0.70;;;6.30;93.10;;;;;;5027509;28;20236;-77
2021/01/30 03:09:00;;;;;;;0.50;0.50;;;6.20;93.30;;;;;;5024787;28;20221;-77
2021/01/30 03:11:34;;;;;;;1.33;0.70;;;6.30;93.30;;;;;;5026254;28;20198;-77
2021/01/30 03:14:08;;;;;;;1.27;0.50;;;6.20;93.40;;;;;;5022447;28;20218;-77
2021/01/30 03:16:38;;;;;;;0.80;0.80;;;6.20;93.40;;;;;;5028548;28;20257;-77
2021/01/30 03:19:08;;;;;;;1.20;0.80;;;6.30;93.10;;;;;;5026816;28;20198;-77
2021/01/30 03:21:36;;;;;;;1.27;0.90;;;6.30;93.20;;;;;;5026133;28;20319;-77
2021/01/30 03:24:04;;;;;;;1.80;0.80;;;6.20;93.40;;;;;;5021421;28;20202;-76
2021/01/30 03:26:34;;;;;;;1.97;0.90;;;6.20;93.40;;;;;;5026914;28;20205;-76
2021/01/30 03:29:00;;;;;;;0.80;0.80;;;6.20;93.40;;;;;;5019238;28;20199;-81
2021/01/30 03:31:26;;;;;;;1.03;1.00;;;6.30;93.20;;;;;;5024151;28;20195;-76
2021/01/30 03:33:52;;;;;;;1.53;1.00;;;6.30;93.10;;;;;;5024154;28;20759;-77
2021/01/30 03:36:19;;;;;;;1.20;0.80;;;6.30;93.20;;;;;;5021644;28;20219;-76
2021/01/30 03:38:45;;;;;;;1.23;0.90;;;6.30;93.30;;;;;;5027851;28;20222;-76
2021/01/30 03:41:28;;;;;;;0.97;0.80;;;6.30;93.20;;;;;;5023821;28;20286;-76
2021/01/30 03:43:54;;;;;;;1.37;0.73;;;6.30;93.20;;;;;;5023160;28;20279;-76
2021/01/30 03:46:21;;;;;;;2.47;0.87;;;6.30;93.30;;;;;;5020337;28;20203;-76
2021/01/30 03:48:47;;;;;;;2.67;1.00;;;6.30;93.60;;;;;;5026302;28;20715;-77
2021/01/30 03:51:13;;;;;;;0.80;0.60;;;6.20;93.60;;;;;;5029238;28;20194;-76
2021/01/30 03:53:39;;;;;;;2.37;1.10;;;6.20;93.50;;;;;;5024326;28;20222;-77
2021/01/30 03:56:06;;;;;;;2.63;1.00;;;6.20;93.30;;;;;;5021760;28;20718;-77
2021/01/30 03:58:33;;;;;;;0.87;0.70;;;6.30;93.00;;;;;;5019947;28;20253;-76
2021/01/30 04:00:59;;;;;;;1.63;0.70;;;6.30;92.80;;;;;;5034697;28;20241;-76
2021/01/30 04:03:25;;;;;;;3.07;0.80;;;6.30;92.70;;;;;;5023311;28;20228;-77
2021/01/30 04:05:52;;;;;;;0.87;0.80;;;6.30;92.90;;;;;;5025593;28;20206;-76
2021/01/30 04:08:18;;;;;;;1.33;0.90;;;6.20;93.10;;;;;;5029408;28;20226;-78
2021/01/30 04:10:44;;;;;;;2.83;0.87;;;6.20;92.80;;;;;;5029186;28;20613;-76
2021/01/30 04:13:11;;;;;;;0.80;0.80;;;6.20;93.00;;;;;;5019420;28;20222;-76
2021/01/30 04:15:40;;;;;;;0.77;0.70;;;6.20;93.00;;;;;;5026946;28;20250;-77
2021/01/30 04:18:07;;;;;;;2.37;0.90;;;6.10;93.10;;;;;;5031189;28;20218;-76
2021/01/30 04:20:34;;;;;;;2.43;0.93;;;6.10;92.90;;;;;;5024466;28;20592;-77
2021/01/30 04:23:00;;;;;;;1.60;0.90;;;6.10;92.90;;;;;;5019127;28;20232;-77
2021/01/30 04:25:38;;;;;;;2.17;0.90;;;6.20;92.40;;;;;;5016200;28;20199;-77
2021/01/30 04:28:05;;;;;;;1.93;0.83;;;6.20;92.90;;;;;;5023896;28;20218;-77
2021/01/30 04:30:31;;;;;;;2.50;0.90;;;6.10;92.40;;;;;;5026043;28;20199;-76
2021/01/30 04:32:59;;;;;;;2.77;1.10;;;6.20;92.40;;;;;;5026162;28;20234;-77
2021/01/30 04:35:30;;;;;;;2.20;0.90;;;6.30;91.70;;;;;;5028775;28;20211;-76
2021/01/30 04:37:56;;;;;;;3.73;1.03;;;6.40;91.40;;;;;;5022147;28;20613;-76
2021/01/30 04:40:31;;;;;;;1.33;0.80;;;6.40;91.20;;;;;;5027267;28;20658;-76
2021/01/30 04:43:06;;;;;;;1.80;1.03;;;6.40;90.80;;;;;;5016420;28;20234;-76
2021/01/30 04:45:45;;;;;;;1.60;1.10;;;6.30;91.00;;;;;;5027113;28;20210;-82
2021/01/30 04:48:27;;;;;;;2.63;1.00;;;6.30;90.80;;;;;;5027134;28;20218;-77
2021/01/30 04:51:00;;;;;;;2.20;0.90;;;6.30;90.90;;;;;;5030776;28;20195;-77
2021/01/30 04:54:02;;;;;;;4.03;1.27;;;6.30;90.60;;;;;;5021478;28;20219;-77
2021/01/30 04:56:43;;;;;;;3.23;1.10;;;6.20;90.80;;;;;;5027971;28;20578;-76
2021/01/30 04:59:18;;;;;;;2.83;1.30;;;6.20;90.90;;;;;;5031552;28;20215;-77
2021/01/30 05:01:49;;;;;;;3.27;1.17;;;6.30;90.40;;;;;;5032526;28;20204;-79
2021/01/30 05:04:21;;;;;;;2.93;1.10;;;6.30;90.60;;;;;;5032517;28;20191;-76
2021/01/30 05:07:14;;;;;;;4.00;1.40;;;6.30;90.20;;;;;;5022967;28;20261;-78
2021/01/30 05:09:47;;;;;;;5.50;1.10;;;6.30;90.40;;;;;;5031797;28;20199;-78
2021/01/30 05:12:18;;;;;;;2.53;0.97;;;6.20;90.40;;;;;;5024169;28;20258;-77
2021/01/30 05:14:52;;;;;;;3.67;1.10;;;6.30;90.30;;;;;;5027433;28;20202;-77
2021/01/30 05:17:23;;;;;;;4.20;1.23;;;6.30;89.80;;;;;;5024269;28;20240;-77
2021/01/30 05:19:56;;;;;;;2.97;1.33;;;6.40;89.80;;;;;;5024136;28;20722;-84
2021/01/30 05:22:34;;;;;;;3.20;1.10;;;6.40;89.80;;;;;;5019844;28;20779;-79
2021/01/30 05:25:01;;;;;;;7.20;1.40;;;6.40;89.80;;;;;;5033936;28;20278;-77
2021/01/30 05:28:04;;;;;;;4.07;1.10;;;6.30;90.60;;;;;;5025026;28;20232;-77
2021/01/30 05:30:41;;;;;;;3.70;1.10;;;6.40;90.20;;;;;;5027148;28;20273;-76
2021/01/30 05:33:52;;;;;;;5.50;1.40;;;6.30;90.60;;;;;;5026112;28;20224;-77
2021/01/30 05:36:23;;;;;;;3.97;1.37;;;6.40;90.30;;;;;;5024489;28;20610;-86
2021/01/30 05:38:59;;;;;;;5.90;1.53;;;6.40;90.60;;;;;;5023600;28;20284;-77
2021/01/30 05:41:39;;;;;;;4.63;1.40;;;6.30;90.90;;;;;;5026714;28;20190;-77
2021/01/30 05:44:17;;;;;;;3.03;1.13;;;6.30;91.00;;;;;;5026782;28;20664;-77
2021/01/30 05:46:48;;;;;;;3.60;1.30;;;6.20;91.30;;;;;;5023509;28;20202;-77
2021/01/30 05:49:18;;;;;;;4.93;1.23;;;6.20;91.30;;;;;;5025218;28;20703;-79
2021/01/30 05:51:54;;;;;;;4.40;1.53;;;6.20;91.40;;;;;;5022167;28;20205;-82
2021/01/30 05:54:20;;;;;;;3.53;1.23;;;6.10;91.60;;;;;;5033298;28;20248;-78
2021/01/30 05:56:47;;;;;;;2.50;1.27;;;6.20;91.40;;;;;;5028711;28;20228;-78
2021/01/30 05:59:20;;;;;;;4.63;1.43;;;6.20;91.80;;;;;;5029463;28;20256;-78
2021/01/30 06:01:46;;;;;;;5.10;1.37;;;6.20;91.50;;;;;;5020061;28;20199;-82
2021/01/30 06:04:13;;;;;;;3.63;1.30;;;6.20;91.90;;;;;;5027359;28;20596;-79
2021/01/30 06:06:41;;;;;;;4.33;1.50;;;6.10;91.80;;;;;;5026787;28;20211;-84
2021/01/30 06:09:12;;;;;;;3.73;1.30;;;6.10;92.00;;;;;;5020393;28;20204;-84
2021/01/30 06:11:44;;;;;;;3.13;1.40;;;6.20;92.20;;;;;;5028088;28;20740;-77
2021/01/30 06:14:30;;;;;;;5.67;1.50;;;6.10;92.60;;;;;;5027280;28;20281;-79
2021/01/30 06:17:15;;;;;;;4.63;1.27;;;6.10;93.00;;;;;;5025852;28;20226;-76
2021/01/30 06:19:41;;;;;;;2.20;1.10;;;6.00;93.30;;;;;;5030737;28;20568;-77
2021/01/30 06:22:14;;;;;;;4.13;1.50;;;6.00;93.40;;;;;;5022674;28;20302;-79
2021/01/30 06:24:49;;;;;;;5.07;1.47;;;6.00;93.10;;;;;;5036528;28;20327;-77
2021/01/30 06:27:30;;;;;;;4.00;1.20;;;6.10;92.80;;;;;;5022302;28;20225;-77
2021/01/30 06:30:00;;;;;;;4.50;1.53;;;6.10;93.00;;;;;;5025519;28;20199;-78
2021/01/30 06:32:36;;;;;;;3.73;1.40;;;6.00;93.30;;;;;;5020784;28;20227;-80
2021/01/30 06:35:21;;;;;;;3.07;1.27;;;6.10;92.60;;;;;;5026399;28;20190;-77
2021/01/30 06:37:50;;;;;;;4.60;1.30;;;6.10;92.30;;;;;;5023273;28;20267;-77
2021/01/30 06:40:24;;;;;;;2.70;1.10;;;6.20;92.00;;;;;;5028530;28;20585;-79
2021/01/30 06:42:52;;;;;;;3.40;1.10;;;6.20;92.00;;;;;;5031161;28;20228;-81
2021/01/30 06:45:37;;;;;;;3.63;1.20;;;6.20;91.90;;;;;;5025605;28;20205;-77
2021/01/30 06:48:08;;;;;;;3.80;1.60;;;6.20;91.80;;;;;;5024574;28;20253;-77
2021/01/30 06:50:38;;;;;;;4.77;1.13;;;6.20;91.70;;;;;;5024444;28;20196;-77
2021/01/30 06:53:18;;;;;;;3.97;1.20;;;6.20;91.60;;;;;;5020522;28;20218;-77
2021/01/30 06:55:45;;;;;;;6.33;1.60;;;6.30;91.40;;;;;;5020596;28;20567;-77
2021/01/30 06:58:21;;;;;;;4.67;1.37;;;6.30;91.20;;;;;;5024110;28;20230;-79
2021/01/30 07:01:07;;;;;;;2.53;1.10;;;6.40;90.90;;;;;;5020391;28;20740;-82
2021/01/30 07:03:56;;;;;;;4.70;1.40;;;6.30;91.10;;;;;;5016719;28;20306;-77
2021/01/30 07:06:27;;;;;;;3.60;1.20;;;6.40;90.80;;;;;;5023406;28;20221;-77
2021/01/30 07:09:03;;;;;;;3.83;1.30;;;6.40;90.90;;;;;;5027099;28;20295;-76
2021/01/30 07:12:03;;;;;;;3.07;1.00;;;6.40;90.90;;;;;;5026596;28;20199;-79
2021/01/30 07:15:04;;;;;;;3.23;1.40;;;6.30;90.80;;;;;;5006561;28;20222;-77
2021/01/30 07:17:51;;;;;;;4.03;1.50;;;6.40;90.70;;;;;;5020114;28;20222;-77
2021/01/30 07:20:36;;;;;;;5.80;1.30;;;6.50;90.20;;;;;;5029583;28;20195;-79
2021/01/30 07:23:08;;;;;;;5.07;1.40;;;6.50;90.00;;;;;;5023594;28;20413;-79
2021/01/30 07:25:42;;;;;;;4.90;1.50;;;6.50;90.00;;;;;;5023581;28;20199;-77
2021/01/30 07:28:22;;;;;;;3.73;1.23;;;6.50;89.90;;;;;;5029013;28;20232;-78
2021/01/30 07:30:54;;;;;;;6.00;1.87;;;6.60;90.00;;;;;;5017369;28;20209;-87
2021/01/30 07:33:27;;;;;;;6.47;1.93;;;6.70;88.70;;;;;;5023685;28;20230;-77
2021/01/30 07:36:02;;;;;;;4.33;1.60;;;6.70;88.70;;;;;;5021854;28;20219;-76
2021/01/30 07:38:35;;;;;;;5.53;1.67;;;6.70;87.70;;;;;;5023171;28;20230;-77
2021/01/30 07:41:07;;;;;;;7.07;2.10;;;6.80;87.70;;;;;;5023497;28;20199;-77
2021/01/30 07:43:38;;;;;;;5.27;1.30;;;6.70;88.50;;;;;;5014470;28;20225;-77
2021/01/30 07:46:11;;;;;;;5.60;1.70;;;6.80;87.90;;;;;;5028017;28;20571;-77
2021/01/30 07:48:45;;;;;;;7.30;1.40;;;6.80;87.50;;;;;;5013293;28;20222;-77
2021/01/30 07:51:25;;;;;;;5.03;1.63;;;6.90;86.70;;;;;;5015608;28;20198;-81
2021/01/30 07:53:51;;;;;;;5.40;1.60;;;6.90;86.90;;;;;;5023551;28;20257;-78
2021/01/30 07:56:38;;;;;;;6.57;1.60;;;6.90;86.80;;;;;;5024958;28;20926;-78
2021/01/30 07:59:20;;;;;;;7.80;1.57;;;6.90;86.50;;;;;;5017620;28;20763;-78
2021/01/30 08:02:28;;;;;;;7.17;1.60;;;6.90;87.20;;;;;;5023860;28;20198;-77
2021/01/30 08:05:12;;;;;;;4.87;1.60;;;6.90;86.60;;;;;;4981819;28;20242;-79
2021/01/30 08:07:55;;;;;;;5.30;1.40;;;6.90;85.80;;;;;;5024001;28;20649;-78
2021/01/30 08:10:26;;;;;;;5.73;1.60;;;6.90;85.70;;;;;;5014097;28;20203;-78
2021/01/30 08:13:14;;;;;;;4.93;1.60;;;7.00;85.80;;;;;;5012918;28;20242;-78
2021/01/30 08:15:47;;;;;;;6.07;1.50;;;7.00;85.60;;;;;;5021685;28;20211;-78
2021/01/30 08:18:57;;;;;;;4.87;1.47;;;7.00;86.00;;;;;;5027998;28;20223;-78
2021/01/30 08:21:41;;;;;;;4.60;1.50;;;7.00;84.60;;;;;;5023946;28;20352;-78
2021/01/30 08:24:19;;;;;;;8.90;1.60;;;7.00;84.70;;;;;;5030826;28;20286;-78
2021/01/30 08:27:34;;;;;;;7.00;1.50;;;7.00;85.90;;;;;;5018133;28;20187;-78
2021/01/30 08:30:05;;;;;;;3.07;1.40;;;7.10;84.60;;;;;;5017820;28;20251;-78
2021/01/30 08:32:39;;;;;;;2.70;1.40;;;7.00;85.20;;;;;;5017913;28;20234;-78
2021/01/30 08:35:43;;;;;;;6.20;1.63;;;7.00;85.10;;;;;;5026538;28;20186;-78
2021/01/30 08:38:11;;;;;;;6.97;1.47;;;7.10;84.00;;;;;;5034418;28;20218;-78
2021/01/30 08:40:47;;;;;;;5.17;1.63;;;7.10;84.20;;;;;;5034245;28;20191;-79
2021/01/30 08:46:32;;;;;;;7.40;1.70;;;7.20;83.30;;;;;;5038089;28;20202;-82
2021/01/30 08:49:20;;;;;;;4.70;1.57;;;7.30;82.80;;;;;;5003090;28;20219;-80
2021/01/30 08:51:49;;;;;;;5.90;1.80;;;7.30;83.30;;;;;;5036567;28;20195;-82
2021/01/30 08:54:38;;;;;;;6.27;1.70;;;7.40;83.30;;;;;;5035931;28;20187;-80
2021/01/30 09:00:52;;;;;;;3.63;1.30;;;7.60;82.10;;;;;;5050154;23;20253;-81
2021/01/30 09:03:52;;;;;;;5.70;1.70;;;7.70;82.00;;;;;;5039290;28;20202;-80
2021/01/30 09:06:56;;;;;;;3.65;1.40;;;7.90;79.90;;;;;;5036554;28;20237;-82
2021/01/30 09:09:28;;;;;;;5.10;1.60;;;7.90;79.20;;;;;;5034132;28;20214;-81
2021/01/30 09:11:59;;;;;;;6.30;2.00;;;7.90;80.00;;;;;;5018998;28;20198;-79
2021/01/30 09:14:41;;;;;;;5.13;1.40;;;7.80;79.90;;;;;;5020420;28;20223;-79
2021/01/30 09:20:34;;;;;;;7.40;1.90;;;7.60;80.30;;;;;;5021104;28;20739;-80
2021/01/30 09:26:30;;;;;;;5.60;1.85;;;7.60;81.00;;;;;;5021727;28;20238;-78
2021/01/30 09:29:06;;;;;;;7.80;1.47;;;7.60;80.20;;;;;;5033623;28;20238;-78
2021/01/30 09:31:33;;;;;;;8.50;1.70;;;7.80;78.70;;;;;;5034592;28;20297;-82
2021/01/30 09:34:04;;;;;;;4.57;1.20;;;7.90;80.00;;;;;;5037972;28;20222;-79
2021/01/30 09:36:37;;;;;;;4.60;1.83;;;8.00;78.60;;;;;;5034653;28;20230;-84
2021/01/30 09:39:09;;;;;;;5.03;1.90;;;8.10;77.60;;;;;;5030279;28;20215;-83
2021/01/30 09:41:37;;;;;;;6.22;2.00;;;8.10;78.80;;;;;;5024638;28;20282;-87
2021/01/30 09:44:21;;;;;;;4.45;1.70;;;8.10;77.90;;;;;;5030981;28;20194;-80
2021/01/30 09:46:52;;;;;;;5.10;2.00;;;8.20;77.10;;;;;;5031242;28;20209;-84
2021/01/30 09:49:33;;;;;;;4.63;1.63;;;8.30;75.70;;;;;;5039536;28;20277;-81
2021/01/30 09:52:00;;;;;;;6.50;2.05;;;8.30;75.90;;;;;;5033846;28;20596;-83
2021/01/30 09:54:28;;;;;;;8.20;2.00;;;8.40;76.50;;;;;;5032622;28;20550;-81
2021/01/30 09:56:59;;;;;;;5.97;1.80;;;8.50;76.50;;;;;;5037988;28;20290;-79
2021/01/30 09:59:32;;;;;;;6.00;1.63;;;8.60;73.50;;;;;;5037439;28;20230;-79
2021/01/30 10:02:09;;;;;;;5.68;1.90;;;8.80;73.70;;;;;;5036599;28;20211;-80
2021/01/30 10:05:07;;;;;;;4.57;1.50;;;8.90;73.80;;;;;;5026927;28;20202;-80
2021/01/30 10:14:36;;;;;;;5.45;1.67;;;9.60;69.50;;;;;;5032016;28;20521;-81
2021/01/30 10:17:04;;;;;;;4.20;1.52;;;10.00;64.60;;;;;;5040741;28;20237;-81
2021/01/30 10:19:58;;;;;;;6.28;1.80;;;10.30;62.90;;;;;;5036097;28;20189;-81
2021/01/30 10:22:41;;;;;;;5.18;1.88;;;10.80;58.40;;;;;;5026662;28;20200;-83
2021/01/30 10:29:22;;;;;;;6.30;1.77;;;11.40;55.40;;;;;;5033593;28;20221;-80
2021/01/30 10:35:22;;;;;;;7.25;1.75;;;13.10;49.60;;;;;;5041883;28;20186;-80
2021/01/30 10:37:52;;;;;;;6.38;1.73;;;13.10;48.40;;;;;;5035809;28;20237;-80
2021/01/30 10:40:37;;;;;;;3.35;1.75;;;12.90;47.90;;;;;;5035685;28;20203;-87
2021/01/30 10:46:33;;;;;;;5.82;1.90;;;13.00;47.50;;;;;;5039057;28;20181;-81
2021/01/30 10:52:25;;;;;;;4.45;1.52;;;13.60;45.00;;;;;;5036836;28;20201;-82
2021/01/30 10:55:22;;;;;;;4.75;1.90;;;14.00;42.40;;;;;;5038743;28;20183;-82
2021/01/30 10:57:49;;;;;;;6.90;1.65;;;13.80;42.30;;;;;;5032903;28;20255;-81
2021/01/30 11:03:19;;;;;;;5.25;2.00;;;13.10;42.40;;;;;;5043586;23;20230;-81
2021/01/30 11:06:33;;;;;;;7.32;1.80;;;12.80;44.40;;;;;;4999029;28;20575;-83
2021/01/30 11:09:11;;;;;;;5.38;1.70;;;12.60;45.40;;;;;;5000704;28;20293;-85
2021/01/30 11:11:44;;;;;;;4.90;2.05;;;12.80;43.70;;;;;;5010084;28;20203;-84
2021/01/30 11:14:18;;;;;;;5.05;1.98;;;12.80;45.30;;;;;;5012612;28;20191;-83
2021/01/30 11:16:45;;;;;;;7.18;2.00;;;12.30;46.10;;;;;;5010525;28;20223;-85
2021/01/30 11:19:22;;;;;;;7.22;1.73;;;12.20;47.60;;;;;;5018561;28;20199;-86
2021/01/30 11:21:50;;;;;;;5.18;1.90;;;12.40;49.00;;;;;;5015079;28;20553;-83
2021/01/30 11:27:28;;;;;;;10.13;2.65;;;12.10;47.40;;;;;;5008223;28;20229;-87
2021/01/30 11:29:54;;;;;;;12.00;2.42;;;11.70;48.30;;;;;;5007842;28;20203;-83
2021/01/30 11:32:23;;;;;;;6.55;2.08;;;11.40;50.90;;;;;;5007194;28;20219;-87
2021/01/30 11:34:54;;;;;;;8.32;2.00;;;11.30;49.80;;;;;;5006052;28;20195;-89
2021/01/30 11:37:20;;;;;;;7.78;2.63;;;11.10;50.90;;;;;;5003816;28;20292;-89
2021/01/30 11:39:47;;;;;;;5.18;2.38;;;10.60;51.40;;;;;;5000455;28;20202;-87
2021/01/30 11:42:14;;;;;;;4.70;2.00;;;10.40;54.00;;;;;;5001923;28;20280;-85
2021/01/30 11:44:40;;;;;;;6.03;2.20;;;10.60;53.10;;;;;;5008460;28;20233;-82
2021/01/30 11:47:07;;;;;;;5.45;1.90;;;10.40;55.60;;;;;;5007391;28;20228;-89
2021/01/30 11:49:35;;;;;;;4.88;2.25;;;10.10;54.00;;;;;;4999401;28;20207;-87
2021/01/30 11:52:01;;;;;;;8.95;2.65;;;10.10;54.90;;;;;;5005005;28;20211;-83
2021/01/30 11:54:28;;;;;;;44.90;27.88;;;10.10;55.90;;;;;;5012798;28;20199;-82
2021/01/30 11:56:57;;;;;;;6.25;1.92;;;10.40;59.80;;;;;;5017484;28;20420;-86
2021/01/30 11:59:23;;;;;;;10.52;5.35;;;10.30;54.00;;;;;;5004124;28;20226;-82
2021/01/30 12:01:50;;;;;;;5.25;2.30;;;10.30;56.90;;;;;;5005039;28;20279;-83
2021/01/30 12:04:16;;;;;;;7.63;2.35;;;10.50;54.20;;;;;;5018473;28;20763;-84
2021/01/30 12:06:43;;;;;;;4.80;2.08;;;10.70;53.80;;;;;;5008204;28;20634;-86
2021/01/30 12:09:10;;;;;;;9.73;3.63;;;10.60;52.70;;;;;;4999885;28;20203;-86
2021/01/30 12:11:36;;;;;;;5.75;2.33;;;10.40;59.10;;;;;;5007372;28;20263;-84
2021/01/30 12:14:03;;;;;;;9.70;4.40;;;10.80;53.30;;;;;;5006470;28;20218;-86
2021/01/30 12:16:38;;;;;;;6.35;1.63;;;10.70;57.10;;;;;;5009029;28;20219;-83
2021/01/30 12:19:04;;;;;;;6.22;1.77;;;10.60;52.80;;;;;;5020527;28;20238;-82
2021/01/30 12:21:47;;;;;;;24.25;14.52;;;10.30;51.60;;;;;;5019693;28;20274;-82
2021/01/30 12:24:14;;;;;;;24.05;14.48;;;10.40;52.90;;;;;;5009595;28;20215;-85
2021/01/30 12:26:41;;;;;;;5.95;2.20;;;10.70;55.50;;;;;;4999773;28;20707;-81
2021/01/30 12:29:08;;;;;;;3.97;1.80;;;11.00;50.00;;;;;;5001329;28;20199;-82
2021/01/30 12:31:34;;;;;;;4.03;2.05;;;11.10;49.80;;;;;;5002442;28;20199;-81
2021/01/30 12:34:01;;;;;;;12.20;6.40;;;10.70;52.00;;;;;;5004501;28;20257;-84
2021/01/30 12:36:27;;;;;;;29.55;18.30;;;10.50;55.60;;;;;;5013186;28;20215;-81
2021/01/30 12:39:01;;;;;;;12.90;7.28;;;10.70;54.40;;;;;;5008638;28;20242;-83
2021/01/30 12:41:27;;;;;;;8.13;4.32;;;10.70;55.00;;;;;;5008082;28;20199;-85
2021/01/30 12:44:00;;;;;;;7.93;2.42;;;10.70;53.40;;;;;;5012618;28;20285;-80
2021/01/30 12:49:48;;;;;;;6.65;1.95;;;10.00;56.70;;;;;;5009289;28;20238;-80
2021/01/30 12:52:17;;;;;;;6.45;1.85;;;9.70;59.40;;;;;;5012574;28;20192;-80
2021/01/30 12:54:51;;;;;;;6.88;3.45;;;9.70;59.90;;;;;;5011891;28;20200;-83
2021/01/30 12:57:33;;;;;;;9.77;1.98;;;9.60;61.30;;;;;;5007460;28;20284;-81
2021/01/30 12:59:59;;;;;;;7.43;1.80;;;9.50;62.50;;;;;;5010054;28;20314;-81
2021/01/30 13:05:48;;;;;;;5.72;2.10;;;9.40;63.80;;;;;;5022941;28;20190;-81
2021/01/30 13:08:16;;;;;;;9.45;1.60;;;9.30;64.90;;;;;;5022564;28;20237;-82
2021/01/30 13:10:58;;;;;;;4.30;1.33;;;9.30;62.40;;;;;;5022193;28;20270;-81
2021/01/30 13:13:24;;;;;;;3.95;1.50;;;9.30;60.40;;;;;;5011490;28;20253;-83
2021/01/30 13:15:51;;;;;;;4.18;1.73;;;9.20;60.80;;;;;;5016798;28;20213;-84
2021/01/30 13:18:17;;;;;;;4.00;1.70;;;9.10;60.70;;;;;;5012473;28;20233;-84
2021/01/30 13:20:44;;;;;;;5.13;1.45;;;9.00;63.70;;;;;;5015484;28;20187;-86
2021/01/30 13:23:11;;;;;;;5.70;2.33;;;9.00;63.50;;;;;;5011957;28;20226;-84
2021/01/30 13:25:38;;;;;;;8.18;3.40;;;9.00;62.90;;;;;;5011060;28;20207;-84
2021/01/30 13:28:04;;;;;;;5.30;1.77;;;9.00;62.90;;;;;;5015578;28;20303;-85
2021/01/30 13:30:31;;;;;;;3.72;1.52;;;8.90;64.00;;;;;;5007715;28;20201;-82
2021/01/30 13:32:58;;;;;;;4.32;1.52;;;8.80;65.20;;;;;;5010120;28;20246;-83
2021/01/30 13:35:27;;;;;;;2.92;1.38;;;8.80;63.50;;;;;;5010297;28;20191;-83
2021/01/30 13:37:54;;;;;;;2.20;1.20;;;8.60;61.80;;;;;;5015174;28;20227;-85
2021/01/30 13:40:30;;;;;;;3.88;2.10;;;8.60;63.50;;;;;;5023654;28;20286;-83
2021/01/30 13:42:56;;;;;;;2.15;1.00;;;8.60;65.20;;;;;;5020538;28;20453;-83
2021/01/30 13:45:23;;;;;;;2.03;1.20;;;8.60;64.60;;;;;;5013749;28;20211;-84
2021/01/30 13:47:50;;;;;;;2.67;1.15;;;8.60;66.50;;;;;;5003730;28;20211;-83
2021/01/30 13:50:17;;;;;;;2.10;1.00;;;8.70;66.60;;;;;;5002270;28;20192;-83
2021/01/30 13:52:43;;;;;;;1.45;1.00;;;8.90;65.50;;;;;;5014913;28;20257;-83
2021/01/30 13:55:12;;;;;;;1.92;1.40;;;8.90;64.40;;;;;;5020295;28;20278;-83
2021/01/30 13:57:40;;;;;;;1.27;1.00;;;8.90;64.60;;;;;;5009904;28;21429;-83
2021/01/30 14:00:09;;;;;;;1.67;1.02;;;8.90;62.90;;;;;;5010891;28;20369;-82
2021/01/30 14:02:38;;;;;;;4.82;1.00;;;8.90;64.70;;;;;;5014009;28;20698;-82
2021/01/30 14:05:07;;;;;;;1.75;1.00;;;8.90;62.50;;;;;;5016488;28;20631;-84
2021/01/30 14:07:33;;;;;;;3.22;1.23;;;9.00;64.30;;;;;;5001821;28;20243;-81
2021/01/30 14:10:00;;;;;;;6.82;1.90;;;9.00;63.50;;;;;;5007423;28;20214;-83
2021/01/30 14:12:26;;;;;;;2.10;1.40;;;9.10;65.20;;;;;;5004626;28;20296;-81
2021/01/30 14:14:53;;;;;;;3.55;1.40;;;9.10;68.60;;;;;;5006818;28;20200;-82